Time;durP1;ratioP1;P1;durP2;ratioP2;P2;SDS_P1;SDS_P2;PMS_P1;PMS_P2;Temp;Humidity;BMP_temperature;BMP_pressure;BME280_temperature;BME280_humidity;BME280_pressure;Samples;Min_cycle;Max_cycle;Signal;HPM_P1;HPM_P2
2022/08/31 00:05:41;;;;;;;4.60;3.90;;;;;;;24.75;43.68;97512.03;5067609;28;20460;-71
2022/08/31 00:08:07;;;;;;;4.10;3.67;;;;;;;24.78;43.53;97505.38;5069336;28;20440;-71
2022/08/31 00:10:33;;;;;;;3.87;3.50;;;;;;;24.75;43.33;97512.03;5072171;28;20174;-70
2022/08/31 00:12:59;;;;;;;4.33;3.93;;;;;;;24.73;43.42;97508.78;5071758;28;20189;-70
2022/08/31 00:15:25;;;;;;;4.87;3.87;;;;;;;24.73;44.06;97510.63;5073081;28;20186;-70
2022/08/31 00:17:51;;;;;;;6.03;4.20;;;;;;;24.72;43.79;97511.66;5072558;28;20970;-70
2022/08/31 00:20:18;;;;;;;7.17;4.23;;;;;;;24.70;43.86;97514.59;5073026;28;20585;-71
2022/08/31 00:22:44;;;;;;;4.00;3.60;;;;;;;24.65;44.21;97509.91;5073068;28;20482;-70
2022/08/31 00:25:10;;;;;;;4.13;3.73;;;;;;;24.64;44.32;97527.03;5072250;28;20417;-70
2022/08/31 00:27:35;;;;;;;8.10;4.17;;;;;;;24.65;44.17;97533.19;5064686;28;20288;-70
2022/08/31 00:30:03;;;;;;;6.07;4.27;;;;;;;24.61;42.64;97537.41;5072616;28;20508;-70
2022/08/31 00:32:28;;;;;;;4.40;4.00;;;;;;;24.63;41.75;97546.84;5072924;28;20181;-70
2022/08/31 00:34:54;;;;;;;4.60;4.13;;;;;;;24.63;41.31;97552.19;5073001;28;20425;-70
2022/08/31 00:37:19;;;;;;;7.90;4.60;;;;;;;24.63;41.40;97562.91;5063070;28;20225;-71
2022/08/31 00:39:45;;;;;;;8.33;4.00;;;;;;;24.60;42.82;97568.75;5068401;28;20201;-70
2022/08/31 00:42:11;;;;;;;5.97;4.47;;;;;;;24.54;43.58;97580.41;5072356;28;20328;-70
2022/08/31 00:44:37;;;;;;;23.37;6.30;;;;;;;24.41;46.61;97581.44;5069784;28;20676;-70
2022/08/31 00:47:03;;;;;;;16.27;6.23;;;;;;;24.22;50.45;97578.88;5068557;28;20197;-70
2022/08/31 00:49:31;;;;;;;14.57;6.43;;;;;;;23.96;52.61;97574.75;5072343;28;20441;-70
2022/08/31 00:52:13;;;;;;;8.43;5.43;;;;;;;23.67;53.25;97571.03;5072653;28;20182;-70
2022/08/31 00:54:51;;;;;;;10.80;6.13;;;;;;;23.34;55.53;97577.69;5055698;28;20531;-70
2022/08/31 00:57:16;;;;;;;8.23;5.87;;;;;;;23.12;56.01;97578.13;5068560;28;20432;-70
2022/08/31 00:59:43;;;;;;;7.60;6.23;;;;;;;22.96;57.04;97599.06;5071332;28;20420;-70
2022/08/31 01:02:09;;;;;;;11.23;6.30;;;;;;;22.91;58.36;97608.78;5070982;28;20210;-70
2022/08/31 01:04:35;;;;;;;15.23;6.07;;;;;;;22.75;58.35;97613.66;5072160;28;20516;-71
2022/08/31 01:07:01;;;;;;;17.50;5.90;;;;;;;22.66;58.35;97598.97;5057890;28;20244;-70
2022/08/31 01:09:29;;;;;;;13.70;7.30;;;;;;;22.62;58.75;97617.25;5071707;28;20208;-70
2022/08/31 01:11:55;;;;;;;14.50;6.80;;;;;;;22.59;59.42;97608.88;5062940;28;21178;-69
2022/08/31 01:14:20;;;;;;;9.77;5.67;;;;;;;22.53;59.79;97616.75;5071938;28;20428;-70
2022/08/31 01:16:50;;;;;;;9.93;6.60;;;;;;;22.46;60.46;97610.63;5070643;28;20186;-70
2022/08/31 01:19:38;;;;;;;19.53;6.87;;;;;;;22.40;61.29;97614.97;5070633;28;20198;-70
2022/08/31 01:22:09;;;;;;;21.17;6.07;;;;;;;22.37;61.24;97625.28;5063343;28;20484;-72
2022/08/31 01:24:36;;;;;;;9.60;6.30;;;;;;;22.35;61.44;97614.84;5062795;28;20979;-70
2022/08/31 01:27:03;;;;;;;8.90;6.10;;;;;;;22.23;61.06;97611.22;5069937;28;20455;-70
2022/08/31 01:29:33;;;;;;;11.43;6.50;;;;;;;22.19;61.35;97608.16;5057850;28;20441;-70
2022/08/31 01:31:58;;;;;;;9.87;6.03;;;;;;;22.19;60.86;97602.81;5071840;28;20427;-71
2022/08/31 01:34:24;;;;;;;11.20;6.27;;;;;;;22.13;61.06;97618.88;5065358;28;20428;-70
2022/08/31 01:36:50;;;;;;;18.63;6.87;;;;;;;22.13;62.00;97630.41;5049835;28;20194;-71
2022/08/31 01:39:16;;;;;;;10.23;5.90;;;;;;;22.30;62.45;97628.00;5065464;28;20347;-70
2022/08/31 01:41:42;;;;;;;10.70;6.30;;;;;;;22.33;62.35;97624.91;5065185;28;20535;-70
2022/08/31 01:44:17;;;;;;;11.77;6.37;;;;;;;22.31;62.44;97618.13;5071259;28;20574;-70
2022/08/31 01:46:43;;;;;;;12.33;7.53;;;;;;;22.23;62.62;97613.91;5058268;28;20452;-70
2022/08/31 01:49:09;;;;;;;10.20;6.90;;;;;;;22.19;62.37;97610.81;5071078;28;20440;-69
2022/08/31 01:51:34;;;;;;;13.87;6.60;;;;;;;22.11;63.36;97613.78;5071669;28;20550;-70
2022/08/31 01:54:01;;;;;;;11.90;6.67;;;;;;;22.15;62.96;97609.66;5071347;28;20203;-70
2022/08/31 01:56:33;;;;;;;9.20;5.83;;;;;;;22.07;63.17;97617.91;5062154;28;20193;-70
2022/08/31 01:58:59;;;;;;;10.90;6.80;;;;;;;22.03;63.69;97616.72;5071187;28;20441;-70
2022/08/31 02:01:31;;;;;;;8.50;6.80;;;;;;;22.10;63.79;97620.13;5071108;28;20544;-71
2022/08/31 02:03:57;;;;;;;8.27;6.90;;;;;;;22.15;63.68;97617.66;5071217;28;20278;-70
2022/08/31 02:06:22;;;;;;;11.00;6.47;;;;;;;22.16;63.66;97613.94;5062638;28;20978;-69
2022/08/31 02:08:48;;;;;;;6.90;6.20;;;;;;;22.17;63.64;97615.59;5071154;28;20232;-70
2022/08/31 02:11:13;;;;;;;10.53;6.53;;;;;;;22.14;64.18;97624.03;5071086;28;20741;-70
2022/08/31 02:13:39;;;;;;;9.43;6.80;;;;;;;22.13;64.12;97619.72;5071067;28;20205;-70
2022/08/31 02:16:05;;;;;;;11.23;7.17;;;;;;;22.05;64.34;97609.31;5071072;28;20273;-71
2022/08/31 02:18:33;;;;;;;8.30;6.90;;;;;;;21.92;63.64;97611.03;5070196;28;20206;-70
2022/08/31 02:20:58;;;;;;;13.50;6.77;;;;;;;21.90;64.14;97612.28;5063803;28;20510;-70
2022/08/31 02:23:24;;;;;;;11.50;6.00;;;;;;;21.91;64.84;97609.41;5070320;28;20521;-70
2022/08/31 02:25:49;;;;;;;7.30;6.43;;;;;;;21.94;63.69;97605.47;5071228;28;20221;-70
2022/08/31 02:28:17;;;;;;;10.00;7.43;;;;;;;21.91;64.25;97604.06;5070142;28;20624;-71
2022/08/31 02:30:43;;;;;;;10.83;6.60;;;;;;;21.94;64.64;97602.81;5070973;28;20596;-70
2022/08/31 02:33:09;;;;;;;7.73;7.00;;;;;;;21.90;65.45;97602.44;5070901;28;20466;-71
2022/08/31 02:35:37;;;;;;;7.83;6.57;;;;;;;21.92;64.91;97597.72;5064298;28;20466;-70
2022/08/31 02:38:03;;;;;;;8.63;6.57;;;;;;;21.94;65.32;97608.16;5058543;28;20806;-70
2022/08/31 02:40:28;;;;;;;9.53;7.23;;;;;;;21.96;65.25;97600.75;5071036;28;20469;-70
2022/08/31 02:42:54;;;;;;;9.67;6.40;;;;;;;22.00;64.90;97601.94;5070962;28;20456;-70
2022/08/31 02:45:20;;;;;;;9.60;7.00;;;;;;;22.04;65.29;97600.47;5064041;28;20699;-70
2022/08/31 02:47:45;;;;;;;13.83;7.00;;;;;;;22.10;65.33;97604.13;5070285;28;20208;-70
2022/08/31 02:50:11;;;;;;;11.67;7.70;;;;;;;22.02;65.21;97609.75;5070863;28;20186;-69
2022/08/31 02:52:36;;;;;;;6.97;6.27;;;;;;;21.92;65.16;97610.22;5070889;28;20634;-70
2022/08/31 02:55:02;;;;;;;7.90;6.07;;;;;;;21.86;65.15;97609.22;5070995;28;20645;-71
2022/08/31 02:57:28;;;;;;;12.50;7.57;;;;;;;21.82;65.04;97620.53;5060719;28;20183;-71
2022/08/31 02:59:53;;;;;;;9.53;6.40;;;;;;;21.77;65.45;97607.84;5065687;28;20774;-70
2022/08/31 03:02:21;;;;;;;10.60;7.40;;;;;;;21.71;65.94;97612.19;5070706;28;20293;-70
2022/08/31 03:04:46;;;;;;;7.90;7.17;;;;;;;21.63;66.28;97602.59;5070853;28;20184;-71
2022/08/31 03:07:12;;;;;;;8.70;6.40;;;;;;;21.62;66.41;97610.78;5061194;28;20432;-69
2022/08/31 03:09:37;;;;;;;8.00;7.20;;;;;;;21.58;66.49;97605.03;5070646;28;20285;-70
2022/08/31 03:12:02;;;;;;;10.53;6.90;;;;;;;21.61;66.79;97604.66;5070819;28;20178;-69
2022/08/31 03:14:28;;;;;;;10.17;7.20;;;;;;;21.61;65.90;97609.19;5070301;28;20689;-70
2022/08/31 03:16:53;;;;;;;9.90;6.60;;;;;;;21.59;65.54;97619.22;5069694;28;20182;-70
2022/08/31 03:19:20;;;;;;;9.60;6.90;;;;;;;21.61;65.38;97618.00;5070283;28;20356;-71
2022/08/31 03:21:45;;;;;;;10.57;6.93;;;;;;;21.63;65.21;97623.09;5062404;28;20202;-71
2022/08/31 03:24:12;;;;;;;7.57;6.87;;;;;;;21.62;65.25;97616.97;5070438;28;20420;-70
2022/08/31 03:26:37;;;;;;;7.80;6.83;;;;;;;21.65;64.80;97615.69;5067311;28;20269;-70
2022/08/31 03:29:03;;;;;;;10.63;6.60;;;;;;;21.70;65.27;97613.22;5066623;28;20875;-70
2022/08/31 03:31:30;;;;;;;7.07;6.40;;;;;;;21.76;65.09;97601.69;5070244;28;20559;-70
2022/08/31 03:33:56;;;;;;;12.47;6.93;;;;;;;21.81;65.39;97598.38;5070721;28;20186;-71
2022/08/31 03:36:22;;;;;;;7.97;6.93;;;;;;;21.78;65.66;97598.81;5060791;28;20487;-71
2022/08/31 03:38:47;;;;;;;9.50;6.83;;;;;;;21.76;65.83;97592.88;5060157;28;20440;-70
2022/08/31 03:41:15;;;;;;;10.33;7.27;;;;;;;21.78;65.47;97588.16;5063406;28;20527;-70
2022/08/31 03:43:40;;;;;;;7.07;6.37;;;;;;;21.83;65.89;97590.97;5072461;28;20232;-70
2022/08/31 03:46:06;;;;;;;8.53;7.03;;;;;;;21.79;65.79;97584.44;5067338;28;20416;-70
2022/08/31 03:48:31;;;;;;;7.47;6.43;;;;;;;21.74;66.50;97584.28;5073135;28;20210;-70
2022/08/31 03:50:57;;;;;;;9.40;6.60;;;;;;;21.80;66.50;97591.41;5066721;28;20529;-69
2022/08/31 03:53:22;;;;;;;7.73;6.67;;;;;;;21.80;66.06;97594.06;5072746;28;20182;-70
2022/08/31 03:55:48;;;;;;;7.87;7.13;;;;;;;21.73;65.84;97595.97;5063606;28;20212;-70
2022/08/31 03:58:13;;;;;;;8.50;6.90;;;;;;;21.71;65.92;97598.03;5050373;28;20749;-71
2022/08/31 04:00:41;;;;;;;14.63;8.53;;;;;;;21.64;66.70;97611.41;5073380;28;20183;-71
2022/08/31 04:03:06;;;;;;;10.87;7.90;;;;;;;21.61;66.50;97618.00;5072959;28;20685;-71
2022/08/31 04:05:35;;;;;;;8.90;7.60;;;;;;;21.63;65.83;97621.25;5062171;28;20451;-71
2022/08/31 04:08:00;;;;;;;10.70;7.67;;;;;;;21.61;65.43;97628.66;5052738;28;20617;-70
2022/08/31 04:10:26;;;;;;;8.70;7.80;;;;;;;21.66;65.74;97627.19;5073011;28;20471;-71
2022/08/31 04:12:51;;;;;;;14.50;7.30;;;;;;;21.68;65.70;97625.94;5057509;28;20266;-71
2022/08/31 04:15:18;;;;;;;9.70;7.17;;;;;;;21.73;66.01;97628.81;5071667;28;20186;-71
2022/08/31 04:17:45;;;;;;;10.57;9.10;;;;;;;21.72;65.71;97632.50;5064404;28;20206;-71
2022/08/31 04:20:10;;;;;;;7.90;7.07;;;;;;;21.73;65.82;97635.97;5069463;28;20447;-71
2022/08/31 04:22:36;;;;;;;8.80;7.70;;;;;;;21.74;65.99;97641.09;5073830;28;20492;-71
2022/08/31 04:25:02;;;;;;;9.77;7.70;;;;;;;21.66;66.40;97638.69;5073371;28;20212;-72
2022/08/31 04:27:28;;;;;;;9.77;7.47;;;;;;;21.62;66.57;97638.28;5064497;28;20189;-73
2022/08/31 04:29:53;;;;;;;10.40;7.40;;;;;;;21.65;66.73;97630.91;5063896;28;20445;-70
2022/08/31 04:32:18;;;;;;;8.97;8.07;;;;;;;21.61;67.08;97636.66;5061625;28;20312;-70
2022/08/31 04:34:44;;;;;;;8.27;7.37;;;;;;;21.61;67.27;97635.84;5062589;28;20198;-70
2022/08/31 04:37:13;;;;;;;10.23;7.73;;;;;;;21.61;67.22;97643.84;5066233;28;20281;-69
2022/08/31 04:39:39;;;;;;;9.90;8.40;;;;;;;21.57;67.69;97640.72;5050626;28;20625;-71
2022/08/31 04:42:04;;;;;;;9.13;8.20;;;;;;;21.53;67.71;97644.03;5069153;28;20453;-71
2022/08/31 04:44:30;;;;;;;8.97;6.97;;;;;;;21.50;67.82;97650.63;5070616;28;20926;-69
2022/08/31 04:46:55;;;;;;;8.57;7.73;;;;;;;21.51;68.01;97641.59;5067305;28;20186;-71
2022/08/31 04:49:21;;;;;;;10.10;7.53;;;;;;;21.49;67.66;97641.00;5058956;28;20210;-70
2022/08/31 04:51:46;;;;;;;8.50;6.97;;;;;;;21.51;67.89;97646.94;5044488;28;20179;-70
2022/08/31 04:54:12;;;;;;;9.07;7.67;;;;;;;21.53;68.03;97650.22;5069823;28;20668;-71
2022/08/31 04:56:41;;;;;;;10.03;8.33;;;;;;;21.45;67.44;97653.09;5067929;28;20183;-69
2022/08/31 04:59:09;;;;;;;9.43;8.37;;;;;;;21.43;68.20;97655.16;5068907;28;20453;-71
2022/08/31 05:01:40;;;;;;;9.23;8.23;;;;;;;21.45;68.09;97651.25;5049492;28;20475;-71
2022/08/31 05:04:07;;;;;;;10.23;8.30;;;;;;;21.42;68.02;97654.34;5071725;28;20970;-71
2022/08/31 05:06:34;;;;;;;9.37;8.10;;;;;;;21.42;67.95;97650.88;5071691;28;20448;-71
2022/08/31 05:09:03;;;;;;;11.30;8.33;;;;;;;21.40;67.81;97651.06;5061900;28;20492;-70
2022/08/31 05:11:29;;;;;;;8.70;7.90;;;;;;;21.50;67.64;97661.28;5072220;28;20413;-70
2022/08/31 05:13:58;;;;;;;10.40;8.10;;;;;;;21.57;67.92;97667.41;5072075;28;20830;-70
2022/08/31 05:16:23;;;;;;;11.33;8.20;;;;;;;21.61;67.44;97657.19;5070832;28;20193;-70
2022/08/31 05:18:50;;;;;;;9.27;8.30;;;;;;;21.58;67.17;97661.03;5051169;28;20449;-71
2022/08/31 05:21:24;;;;;;;12.50;8.23;;;;;;;21.58;67.11;97665.56;5060045;28;20261;-69
2022/08/31 05:23:50;;;;;;;9.40;8.40;;;;;;;21.59;67.89;97665.38;5066650;28;20490;-70
2022/08/31 05:26:17;;;;;;;11.50;8.43;;;;;;;21.63;68.05;97661.25;5071008;28;21062;-71
2022/08/31 05:28:43;;;;;;;8.83;7.93;;;;;;;21.62;68.23;97662.28;5053832;28;20234;-71
2022/08/31 05:31:08;;;;;;;9.50;7.57;;;;;;;21.63;68.18;97663.09;5071037;28;20510;-71
2022/08/31 05:33:34;;;;;;;8.97;7.63;;;;;;;21.64;67.72;97659.41;5063129;28;20279;-71
2022/08/31 05:36:00;;;;;;;9.30;8.23;;;;;;;21.66;68.09;97665.34;5053457;28;20281;-71
2022/08/31 05:38:26;;;;;;;9.07;7.70;;;;;;;21.66;67.75;97669.88;5065851;28;20205;-71
2022/08/31 05:40:53;;;;;;;10.27;7.87;;;;;;;21.59;67.50;97662.72;5071417;28;20931;-68
2022/08/31 05:43:19;;;;;;;10.93;8.20;;;;;;;21.53;67.34;97676.88;5070981;28;20213;-71
2022/08/31 05:45:45;;;;;;;9.43;6.63;;;;;;;21.53;67.42;97674.22;5062546;28;20434;-72
2022/08/31 05:48:10;;;;;;;8.40;6.63;;;;;;;21.55;67.32;97673.97;5051891;28;20870;-71
2022/08/31 05:50:36;;;;;;;7.10;6.07;;;;;;;21.53;67.29;97676.03;5063984;28;20278;-70
2022/08/31 05:53:02;;;;;;;7.47;6.70;;;;;;;21.52;66.92;97669.06;5063231;28;20228;-71
2022/08/31 05:55:28;;;;;;;9.60;6.80;;;;;;;21.51;67.00;97678.94;5070984;28;20543;-71
2022/08/31 05:57:53;;;;;;;7.20;6.50;;;;;;;21.51;67.09;97678.09;5046968;28;21003;-71
2022/08/31 06:00:19;;;;;;;8.53;6.27;;;;;;;21.47;66.92;97691.88;5050944;28;20422;-71
2022/08/31 06:02:44;;;;;;;10.50;7.00;;;;;;;21.45;67.19;97691.25;5050800;28;20714;-71
2022/08/31 06:05:10;;;;;;;7.97;7.27;;;;;;;21.47;67.22;97693.69;5050503;28;20194;-71
2022/08/31 06:07:35;;;;;;;20.77;17.30;;;;;;;21.45;67.20;97690.41;5043750;28;20298;-71
2022/08/31 06:10:01;;;;;;;14.53;12.90;;;;;;;21.46;67.80;97700.06;5051594;28;20189;-71
2022/08/31 06:12:27;;;;;;;8.47;7.77;;;;;;;21.39;68.02;97702.75;5058350;28;20582;-71
2022/08/31 06:14:54;;;;;;;8.80;7.43;;;;;;;21.38;67.86;97706.44;5051356;28;20429;-70
2022/08/31 06:17:19;;;;;;;9.20;8.20;;;;;;;21.41;68.24;97700.69;5052609;28;20210;-70
2022/08/31 06:19:45;;;;;;;10.73;8.30;;;;;;;21.41;68.08;97697.22;5057380;28;20433;-71
2022/08/31 06:22:10;;;;;;;9.77;6.97;;;;;;;21.40;68.08;97711.56;5059134;28;20237;-71
2022/08/31 06:24:37;;;;;;;6.90;6.30;;;;;;;21.43;67.87;97703.13;5051443;28;20267;-70
2022/08/31 06:27:04;;;;;;;8.90;7.67;;;;;;;21.43;68.18;97703.13;5050444;28;20241;-71
2022/08/31 06:29:30;;;;;;;7.53;6.60;;;;;;;21.47;68.20;97715.03;5042887;28;20871;-70
2022/08/31 06:31:56;;;;;;;12.17;10.70;;;;;;;21.50;67.85;97709.28;5050922;28;20505;-71
2022/08/31 06:34:22;;;;;;;15.93;14.23;;;;;;;21.52;67.47;97701.91;5050726;28;20794;-71
2022/08/31 06:36:48;;;;;;;16.37;14.67;;;;;;;21.53;67.30;97708.88;5052813;28;20198;-71
2022/08/31 06:39:14;;;;;;;14.03;11.73;;;;;;;21.55;67.48;97709.44;5052658;28;20450;-72
2022/08/31 06:41:40;;;;;;;13.43;11.73;;;;;;;21.57;67.36;97707.41;5050862;28;20662;-70
2022/08/31 06:44:09;;;;;;;9.83;7.50;;;;;;;21.53;67.24;97708.88;5050744;28;20433;-71
2022/08/31 06:46:35;;;;;;;10.00;6.80;;;;;;;21.55;67.37;97714.78;5056709;28;20260;-70
2022/08/31 06:49:01;;;;;;;9.50;8.50;;;;;;;21.56;68.02;97712.94;5049289;28;20475;-70
2022/08/31 06:51:27;;;;;;;7.40;6.60;;;;;;;21.52;67.67;97714.41;5050482;28;20422;-70
2022/08/31 06:53:52;;;;;;;11.60;8.00;;;;;;;21.55;68.06;97717.44;5051026;28;20218;-72
2022/08/31 06:56:24;;;;;;;9.97;8.43;;;;;;;21.58;68.14;97713.56;5050365;28;20214;-70
2022/08/31 06:58:51;;;;;;;8.57;7.70;;;;;;;21.54;67.58;97721.19;5050685;28;20203;-70
2022/08/31 07:01:19;;;;;;;9.27;7.10;;;;;;;21.55;67.56;97721.97;5053942;28;20426;-69
2022/08/31 07:03:48;;;;;;;10.70;7.90;;;;;;;21.51;67.52;97720.75;5056813;28;20445;-70
2022/08/31 07:06:22;;;;;;;10.30;8.00;;;;;;;21.48;67.36;97728.13;5047306;28;20426;-71
2022/08/31 07:08:53;;;;;;;8.23;7.30;;;;;;;21.51;67.12;97726.91;5050571;28;20452;-69
2022/08/31 07:11:22;;;;;;;8.37;7.53;;;;;;;21.50;67.12;97727.94;5044758;28;20425;-69
2022/08/31 07:13:49;;;;;;;21.10;18.90;;;;;;;21.52;67.96;97733.91;5051412;28;20446;-69
2022/08/31 07:16:17;;;;;;;9.07;8.17;;;;;;;21.48;67.38;97736.13;5061218;28;20444;-73
2022/08/31 07:18:43;;;;;;;7.83;7.03;;;;;;;21.47;67.68;97739.84;5054020;28;20540;-71
2022/08/31 07:21:10;;;;;;;9.60;7.30;;;;;;;21.43;67.34;97741.28;5062653;28;20417;-71
2022/08/31 07:23:36;;;;;;;8.33;7.40;;;;;;;21.42;67.32;97744.19;5054068;28;20901;-70
2022/08/31 07:26:07;;;;;;;9.50;7.80;;;;;;;21.42;67.75;97750.31;5054458;28;20425;-70
2022/08/31 07:28:33;;;;;;;8.40;7.20;;;;;;;21.43;67.62;97740.47;5052263;28;20449;-70
2022/08/31 07:31:02;;;;;;;8.87;7.33;;;;;;;21.44;67.62;97742.09;5054314;28;20533;-70
2022/08/31 07:33:37;;;;;;;8.77;7.33;;;;;;;21.39;67.54;97741.94;5053876;28;20187;-70
2022/08/31 07:36:11;;;;;;;7.10;6.40;;;;;;;21.34;67.15;97734.56;5051062;28;20875;-70
2022/08/31 07:44:07;;;;;;;9.50;7.50;;;;;;;21.41;66.87;97731.88;5054111;28;20432;-69
2022/08/31 07:46:34;;;;;;;7.63;6.57;;;;;;;21.41;65.85;97726.53;5059537;28;20425;-71
2022/08/31 07:49:00;;;;;;;9.67;7.30;;;;;;;21.42;65.70;97726.31;5054207;28;20209;-70
2022/08/31 07:51:26;;;;;;;8.60;7.17;;;;;;;21.46;65.81;97734.72;5053494;28;20417;-69
2022/08/31 07:53:52;;;;;;;11.60;6.60;;;;;;;21.50;65.88;97733.28;5054014;28;20237;-69
2022/08/31 07:56:19;;;;;;;7.17;6.47;;;;;;;21.53;65.40;97734.69;5053319;28;20202;-70
2022/08/31 07:58:46;;;;;;;8.70;7.10;;;;;;;21.57;65.65;97741.25;5053603;28;20472;-71
2022/08/31 08:01:13;;;;;;;11.97;7.50;;;;;;;21.55;65.78;97730.78;5061500;28;20417;-69
2022/08/31 08:03:43;;;;;;;9.13;7.30;;;;;;;21.56;65.64;97729.75;5053666;28;20442;-72
2022/08/31 08:06:14;;;;;;;14.47;7.83;;;;;;;21.58;66.14;97738.38;5050517;28;20469;-69
2022/08/31 08:08:43;;;;;;;9.87;7.70;;;;;;;21.61;66.18;97738.00;5051574;28;20536;-71
2022/08/31 08:11:16;;;;;;;9.83;7.70;;;;;;;21.64;66.76;97739.41;5053567;28;20421;-71
2022/08/31 08:13:42;;;;;;;9.40;7.80;;;;;;;21.64;66.94;97742.06;5053370;28;20428;-71
2022/08/31 08:16:07;;;;;;;14.47;7.70;;;;;;;21.59;66.56;97749.88;5053977;28;20430;-71
2022/08/31 08:18:34;;;;;;;14.73;9.60;;;;;;;21.58;66.75;97748.22;5060296;28;20529;-70
2022/08/31 08:20:59;;;;;;;8.00;7.10;;;;;;;21.59;67.01;97750.72;5069353;28;20652;-70
2022/08/31 08:23:25;;;;;;;9.83;7.37;;;;;;;21.56;66.59;97760.94;5053559;28;20454;-70
2022/08/31 08:25:50;;;;;;;10.70;7.53;;;;;;;21.59;67.04;97757.88;5053417;28;20191;-71
2022/08/31 08:28:17;;;;;;;9.37;7.90;;;;;;;21.64;67.34;97763.41;5052264;28;20203;-70
2022/08/31 08:30:47;;;;;;;11.17;7.70;;;;;;;21.67;66.96;97768.34;5060531;28;20183;-71
2022/08/31 08:33:14;;;;;;;8.70;7.07;;;;;;;21.67;66.60;97759.53;5052957;28;20414;-71
2022/08/31 08:35:40;;;;;;;11.90;7.00;;;;;;;21.72;67.00;97751.69;5053692;28;20449;-71
2022/08/31 08:38:06;;;;;;;7.53;6.77;;;;;;;21.62;66.29;97763.63;5048976;28;20452;-71
2022/08/31 08:40:41;;;;;;;8.60;7.27;;;;;;;21.67;66.09;97763.00;5051519;28;20986;-69
2022/08/31 08:43:15;;;;;;;10.17;7.20;;;;;;;21.67;64.74;97762.19;5050898;28;20202;-71
2022/08/31 08:45:42;;;;;;;7.50;6.73;;;;;;;21.66;65.30;97765.88;5059301;28;20795;-70
2022/08/31 08:48:10;;;;;;;8.57;7.13;;;;;;;21.70;65.35;97777.75;5051973;28;20441;-71
2022/08/31 08:50:38;;;;;;;14.43;7.17;;;;;;;21.76;65.83;97772.41;5052105;28;20432;-70
2022/08/31 08:53:06;;;;;;;7.77;6.97;;;;;;;21.82;65.98;97776.06;5051564;28;20429;-71
2022/08/31 08:55:36;;;;;;;8.07;7.23;;;;;;;21.89;66.12;97778.72;5044141;28;20426;-71
2022/08/31 08:58:04;;;;;;;7.73;6.93;;;;;;;21.97;66.65;97775.81;5051658;28;20445;-70
2022/08/31 09:00:32;;;;;;;8.80;7.30;;;;;;;22.01;66.86;97779.69;5044726;28;20444;-71
2022/08/31 09:03:24;;;;;;;8.70;7.43;;;;;;;21.99;66.50;97786.28;5059646;28;20473;-71
2022/08/31 09:05:57;;;;;;;7.97;6.57;;;;;;;22.03;66.45;97784.81;5044668;28;20499;-71
2022/08/31 09:09:08;;;;;;;8.20;7.40;;;;;;;22.12;66.72;97785.38;5050117;28;20794;-71
2022/08/31 09:11:55;;;;;;;12.23;7.03;;;;;;;22.13;65.28;97785.19;5040031;28;20429;-70
2022/08/31 09:14:47;;;;;;;8.63;7.00;;;;;;;22.21;65.26;97782.25;5051942;28;20513;-69
2022/08/31 09:17:26;;;;;;;7.50;6.80;;;;;;;22.20;64.72;97791.31;5051335;28;20471;-70
2022/08/31 09:19:59;;;;;;;11.03;7.27;;;;;;;22.18;63.95;97790.69;5034608;28;20436;-69
2022/08/31 09:22:29;;;;;;;8.90;8.00;;;;;;;22.23;64.67;97788.22;5059308;28;20828;-71
2022/08/31 09:24:58;;;;;;;9.23;7.27;;;;;;;22.30;65.08;97795.38;5051196;28;20429;-71
2022/08/31 09:27:44;;;;;;;8.53;7.30;;;;;;;22.32;65.69;97795.97;5051775;28;22130;-71
2022/08/31 09:30:11;;;;;;;9.77;7.60;;;;;;;22.25;65.35;97796.84;5051662;28;20438;-70
2022/08/31 09:32:37;;;;;;;8.70;7.87;;;;;;;22.23;65.17;97798.09;5051887;28;20421;-71
2022/08/31 09:35:09;;;;;;;8.30;7.50;;;;;;;22.30;65.41;97796.19;5034236;28;20422;-71
2022/08/31 09:37:47;;;;;;;9.10;8.20;;;;;;;22.37;65.10;97796.16;5045877;28;20198;-70
2022/08/31 09:40:19;;;;;;;10.20;7.90;;;;;;;22.44;65.38;97794.28;5051731;28;20437;-71
2022/08/31 09:42:47;;;;;;;10.23;8.03;;;;;;;22.59;65.15;97799.34;5064315;28;20535;-71
2022/08/31 09:45:28;;;;;;;11.27;9.37;;;;;;;22.73;65.05;97799.25;5049893;28;20507;-70
2022/08/31 09:47:59;;;;;;;10.20;8.57;;;;;;;22.82;64.75;97804.09;5049994;28;20448;-70
2022/08/31 09:50:35;;;;;;;9.10;8.20;;;;;;;22.86;63.47;97802.63;5051695;28;20426;-71
2022/08/31 09:56:12;;;;;;;10.73;8.20;;;;;;;22.91;62.03;97793.16;5045702;28;20438;-69
2022/08/31 09:58:40;;;;;;;11.50;8.70;;;;;;;22.90;62.17;97786.19;5055517;28;20575;-71
2022/08/31 10:01:14;;;;;;;9.77;8.87;;;;;;;22.86;61.50;97789.28;5062852;28;20425;-69
2022/08/31 10:03:44;;;;;;;13.57;10.40;;;;;;;22.88;61.21;97793.59;5058565;28;20421;-70
2022/08/31 10:06:44;;;;;;;15.50;11.80;;;;;;;22.88;61.42;97804.28;5048188;28;20449;-70
2022/08/31 10:09:16;;;;;;;11.10;9.27;;;;;;;22.90;61.97;97797.66;5051008;28;20445;-71
2022/08/31 10:11:43;;;;;;;11.40;9.50;;;;;;;22.87;62.54;97803.47;5051316;28;20417;-71
2022/08/31 10:14:15;;;;;;;12.73;11.43;;;;;;;22.85;63.02;97806.34;5049813;28;20525;-71
2022/08/31 10:16:48;;;;;;;13.20;10.00;;;;;;;22.83;62.88;97800.41;5058794;28;20432;-69
2022/08/31 10:19:19;;;;;;;14.07;9.60;;;;;;;22.83;62.78;97804.94;5059411;28;20523;-71
2022/08/31 10:21:58;;;;;;;15.73;9.90;;;;;;;22.82;63.74;97812.13;5058160;28;20866;-70
2022/08/31 10:24:45;;;;;;;13.10;10.57;;;;;;;22.84;63.16;97807.38;5049740;28;20525;-70
2022/08/31 10:27:19;;;;;;;11.10;9.87;;;;;;;22.82;62.27;97812.13;5051002;28;20944;-70
2022/08/31 10:29:58;;;;;;;12.47;9.03;;;;;;;22.85;59.88;97816.22;5065349;28;20483;-70
2022/08/31 10:32:41;;;;;;;9.00;7.83;;;;;;;22.83;59.25;97808.41;5049862;28;20429;-71
2022/08/31 10:35:44;;;;;;;13.83;8.37;;;;;;;22.82;59.13;97809.44;5049550;28;20429;-72
2022/08/31 10:38:25;;;;;;;12.60;9.47;;;;;;;22.89;58.95;97811.25;5047529;28;20967;-71
2022/08/31 10:40:59;;;;;;;9.20;8.00;;;;;;;22.98;59.42;97807.28;5051211;28;20421;-70
2022/08/31 10:43:31;;;;;;;9.53;8.50;;;;;;;23.08;59.51;97804.13;5049048;28;20496;-70
2022/08/31 10:45:56;;;;;;;9.07;8.17;;;;;;;23.10;58.14;97805.53;5053127;28;20433;-70
2022/08/31 10:48:24;;;;;;;9.03;8.13;;;;;;;23.14;58.23;97804.06;5062289;28;20532;-69
2022/08/31 10:50:51;;;;;;;8.47;7.67;;;;;;;23.17;58.07;97800.97;5056477;28;20183;-72
2022/08/31 10:53:20;;;;;;;9.40;8.50;;;;;;;23.17;56.86;97806.31;5055863;28;20436;-70
2022/08/31 10:55:52;;;;;;;12.33;8.20;;;;;;;23.19;56.90;97803.41;5062183;28;20422;-72
2022/08/31 10:58:30;;;;;;;8.83;7.93;;;;;;;23.23;57.49;97809.16;5060582;28;20459;-70
2022/08/31 11:01:17;;;;;;;13.17;8.37;;;;;;;23.28;57.60;97812.00;5053775;28;20908;-69
2022/08/31 11:04:01;;;;;;;8.87;7.67;;;;;;;23.24;58.26;97811.63;5050649;28;20444;-70
2022/08/31 11:06:38;;;;;;;7.47;6.77;;;;;;;23.28;57.97;97812.00;5058870;28;20991;-72
2022/08/31 11:09:32;;;;;;;8.60;7.80;;;;;;;23.30;57.14;97808.06;5053808;28;20441;-70
2022/08/31 11:12:07;;;;;;;16.60;9.37;;;;;;;23.32;57.04;97815.84;5049350;28;20460;-71
2022/08/31 11:14:57;;;;;;;11.13;8.60;;;;;;;23.30;56.87;97812.59;5046848;28;20428;-70
2022/08/31 11:17:50;;;;;;;8.90;8.00;;;;;;;23.31;57.07;97814.25;5053546;28;20426;-69
2022/08/31 11:20:38;;;;;;;12.63;7.13;;;;;;;23.31;57.68;97808.91;5055902;28;20422;-71
2022/08/31 11:23:31;;;;;;;9.40;8.17;;;;;;;23.26;57.42;97806.84;5057876;28;20468;-70
2022/08/31 11:26:31;;;;;;;11.53;8.70;;;;;;;23.20;58.29;97806.91;5049698;28;20425;-70
2022/08/31 11:29:18;;;;;;;9.13;8.23;;;;;;;23.21;58.36;97804.03;5049942;28;20460;-71
2022/08/31 11:31:45;;;;;;;8.40;7.60;;;;;;;23.22;57.73;97802.16;5053084;28;20410;-70
2022/08/31 11:34:25;;;;;;;9.40;8.40;;;;;;;23.22;58.02;97808.34;5053993;28;20422;-70
2022/08/31 11:36:54;;;;;;;9.30;7.87;;;;;;;23.21;57.92;97798.69;5051905;28;20453;-70
2022/08/31 11:39:43;;;;;;;10.93;8.23;;;;;;;23.16;57.94;97802.00;5054769;28;20523;-70
2022/08/31 11:42:12;;;;;;;12.00;8.00;;;;;;;23.13;58.26;97801.59;5056395;28;21043;-71
2022/08/31 11:44:42;;;;;;;9.03;7.90;;;;;;;23.11;58.10;97799.16;5055505;28;20489;-71
2022/08/31 11:47:34;;;;;;;12.10;8.50;;;;;;;23.05;58.28;97800.03;5054636;28;20769;-71
2022/08/31 11:50:10;;;;;;;10.17;8.67;;;;;;;23.05;58.27;97800.03;5052894;28;20792;-71
2022/08/31 11:52:42;;;;;;;10.00;7.90;;;;;;;23.02;58.57;97795.13;5046381;28;20417;-71